Wetterdaten: Woche 10.11.08 - 16.11.08 (KW46)
Datum Zeit Temperatur Luftfeuchte Luftdruck Niederschlag Wind Richtung Sonnenschein Solar Taupunkt Windchill Windben
10.11.2008 00:00 8.6 C 89 % 1025.7 hPa 0.0 l/m 0.5 km/h (0 Bft) O 0.00 h 0 W/m 6.9 C 8.6 C 1.6 km/h (1 Bft)
10.11.2008 01:00 8.0 C 92 % 1025.3 hPa 0.0 l/m 0.8 km/h (0 Bft) O 0.00 h 0 W/m 6.7 C 8.0 C 2.1 km/h (1 Bft)
10.11.2008 02:00 7.8 C 92 % 1025.1 hPa 0.0 l/m 2.3 km/h (1 Bft) SO 0.00 h 0 W/m 6.5 C 7.6 C 4.3 km/h (1 Bft)
10.11.2008 03:00 7.9 C 87 % 1024.9 hPa 0.0 l/m 1.2 km/h (1 Bft) N 0.00 h 0 W/m 5.9 C 7.9 C 2.8 km/h (1 Bft)
10.11.2008 04:00 6.6 C 91 % 1024.9 hPa 0.0 l/m 1.2 km/h (1 Bft) N 0.00 h 0 W/m 5.3 C 6.5 C 2.4 km/h (1 Bft)
10.11.2008 05:00 6.2 C 93 % 1025.0 hPa 0.0 l/m 0.9 km/h (0 Bft) N 0.00 h 0 W/m 5.2 C 6.2 C 2.5 km/h (1 Bft)
10.11.2008 06:00 5.4 C 94 % 1025.3 hPa 0.0 l/m 0.1 km/h (0 Bft) NO 0.00 h 0 W/m 4.5 C 5.4 C 0.3 km/h (0 Bft)
10.11.2008 07:00 5.0 C 95 % 1025.8 hPa 0.0 l/m 1.5 km/h (1 Bft) NO 0.05 h 14 W/m 4.3 C 4.8 C 2.5 km/h (1 Bft)
10.11.2008 08:00 7.1 C 96 % 1026.0 hPa 0.0 l/m 2.3 km/h (1 Bft) O-SO 0.38 h 79 W/m 6.5 C 6.9 C 4.6 km/h (1 Bft)
10.11.2008 09:00 10.0 C 85 % 1026.3 hPa 0.0 l/m 2.4 km/h (1 Bft) S 0.37 h 146 W/m 7.5 C 10.0 C 6.0 km/h (2 Bft)
10.11.2008 10:00 11.6 C 76 % 1025.9 hPa 0.0 l/m 3.8 km/h (1 Bft) S-SW 0.45 h 188 W/m 7.5 C 11.6 C 8.8 km/h (2 Bft)
10.11.2008 11:00 12.8 C 71 % 1025.3 hPa 0.0 l/m 5.1 km/h (1 Bft) S-SO 0.90 h 308 W/m 7.7 C 12.8 C 10.2 km/h (2 Bft)
10.11.2008 12:00 14.2 C 66 % 1024.1 hPa 0.0 l/m 5.5 km/h (1 Bft) S-SO 0.98 h 358 W/m 7.9 C 14.2 C 10.2 km/h (2 Bft)
10.11.2008 13:00 14.3 C 67 % 1023.2 hPa 0.0 l/m 5.0 km/h (1 Bft) S 0.67 h 242 W/m 8.2 C 14.3 C 10.2 km/h (2 Bft)
10.11.2008 14:00 15.0 C 63 % 1022.6 hPa 0.0 l/m 6.6 km/h (2 Bft) S-SO 0.80 h 239 W/m 8.1 C 15.0 C 13.4 km/h (3 Bft)
10.11.2008 15:00 14.4 C 63 % 1022.3 hPa 0.0 l/m 6.8 km/h (2 Bft) S-SW 0.47 h 117 W/m 7.5 C 14.4 C 13.3 km/h (3 Bft)
10.11.2008 16:00 13.7 C 65 % 1022.2 hPa 0.0 l/m 8.0 km/h (2 Bft) S 0.12 h 25 W/m 7.2 C 13.7 C 15.6 km/h (3 Bft)
10.11.2008 17:00 13.4 C 66 % 1022.3 hPa 0.0 l/m 7.9 km/h (2 Bft) S-SO 0.00 h 0 W/m 7.1 C 13.4 C 13.4 km/h (3 Bft)
10.11.2008 18:00 13.0 C 66 % 1022.4 hPa 0.0 l/m 7.5 km/h (2 Bft) S-SO 0.00 h 0 W/m 6.9 C 13.0 C 14.1 km/h (3 Bft)
10.11.2008 19:00 11.6 C 72 % 1022.1 hPa 0.0 l/m 1.8 km/h (1 Bft) N-NO 0.00 h 0 W/m 6.7 C 11.6 C 3.9 km/h (1 Bft)
10.11.2008 20:00 10.9 C 73 % 1021.7 hPa 0.0 l/m 1.1 km/h (1 Bft) S-SO 0.00 h 0 W/m 6.3 C 10.9 C 2.8 km/h (1 Bft)
10.11.2008 21:00 10.4 C 75 % 1021.2 hPa 0.0 l/m 1.6 km/h (1 Bft) S-SO 0.00 h 0 W/m 6.2 C 10.4 C 3.7 km/h (1 Bft)
10.11.2008 22:00 10.2 C 76 % 1021.0 hPa 0.0 l/m 2.2 km/h (1 Bft) S-SO 0.00 h 0 W/m 6.1 C 10.2 C 4.2 km/h (1 Bft)
10.11.2008 23:00 9.3 C 82 % 1020.6 hPa 0.0 l/m 1.5 km/h (1 Bft) S-SO 0.00 h 0 W/m 6.4 C 9.3 C 3.2 km/h (1 Bft)
11.11.2008 00:00 9.3 C 80 % 1019.8 hPa 0.0 l/m 2.2 km/h (1 Bft) S-SO 0.00 h 0 W/m 6.0 C 9.2 C 4.2 km/h (1 Bft)
11.11.2008 01:00 8.7 C 81 % 1018.9 hPa 0.0 l/m 3.2 km/h (1 Bft) O-SO 0.00 h 0 W/m 5.6 C 8.5 C 5.8 km/h (2 Bft)
11.11.2008 02:00 7.9 C 83 % 1018.3 hPa 0.0 l/m 2.9 km/h (1 Bft) S-SO 0.00 h 0 W/m 5.2 C 7.7 C 5.2 km/h (1 Bft)
11.11.2008 03:00 7.1 C 86 % 1017.7 hPa 0.0 l/m 1.4 km/h (1 Bft) NO 0.00 h 0 W/m 5.0 C 7.0 C 2.6 km/h (1 Bft)
11.11.2008 04:00 6.3 C 88 % 1017.4 hPa 0.0 l/m 1.6 km/h (1 Bft) O-SO 0.00 h 0 W/m 4.5 C 6.2 C 3.4 km/h (1 Bft)
11.11.2008 05:00 5.5 C 92 % 1017.1 hPa 0.0 l/m 4.3 km/h (1 Bft) SO 0.00 h 0 W/m 4.3 C 4.7 C 6.6 km/h (2 Bft)
11.11.2008 06:00 6.3 C 89 % 1016.7 hPa 0.0 l/m 1.8 km/h (1 Bft) NO 0.00 h 0 W/m 4.6 C 6.2 C 3.6 km/h (1 Bft)
11.11.2008 07:00 6.9 C 85 % 1017.1 hPa 0.0 l/m 4.0 km/h (1 Bft) S-SO 0.10 h 12 W/m 4.5 C 6.4 C 7.5 km/h (2 Bft)
11.11.2008 08:00 7.8 C 80 % 1017.4 hPa 0.0 l/m 2.8 km/h (1 Bft) S-SO 0.08 h 56 W/m 4.6 C 7.6 C 5.6 km/h (1 Bft)
11.11.2008 09:00 9.6 C 74 % 1017.5 hPa 0.0 l/m 4.5 km/h (1 Bft) W-SW 0.00 h 91 W/m 5.3 C 9.5 C 9.5 km/h (2 Bft)
11.11.2008 10:00 10.8 C 70 % 1017.1 hPa 0.0 l/m 6.2 km/h (2 Bft) S-SW 0.00 h 73 W/m 5.5 C 10.8 C 12.5 km/h (3 Bft)
11.11.2008 11:00 11.3 C 69 % 1016.8 hPa 0.0 l/m 8.9 km/h (2 Bft) S-SO 0.00 h 79 W/m 5.9 C 11.3 C 15.7 km/h (3 Bft)
11.11.2008 12:00 11.3 C 75 % 1016.4 hPa 0.0 l/m 2.2 km/h (1 Bft) O-SO 0.00 h 44 W/m 6.9 C 11.3 C 4.5 km/h (1 Bft)
11.11.2008 13:00 11.0 C 81 % 1016.3 hPa 0.2 l/m 7.3 km/h (2 Bft) W-NW 0.00 h 43 W/m 7.9 C 11.0 C 11.6 km/h (2 Bft)
11.11.2008 14:00 10.3 C 83 % 1017.8 hPa 0.0 l/m 18.8 km/h (3 Bft) W 0.00 h 58 W/m 7.6 C 9.6 C 28.5 km/h (4 Bft)
11.11.2008 15:00 9.3 C 86 % 1018.3 hPa 0.2 l/m 15.5 km/h (3 Bft) W 0.00 h 43 W/m 7.1 C 7.1 C 23.8 km/h (4 Bft)
11.11.2008 16:00 8.8 C 88 % 1018.9 hPa 0.2 l/m 7.7 km/h (2 Bft) W 0.00 h 17 W/m 6.9 C 7.7 C 13.0 km/h (3 Bft)
11.11.2008 17:00 8.4 C 89 % 1019.4 hPa 0.0 l/m 1.5 km/h (1 Bft) W 0.00 h 0 W/m 6.8 C 8.4 C 3.4 km/h (1 Bft)
11.11.2008 18:00 8.2 C 90 % 1019.6 hPa 0.0 l/m 2.4 km/h (1 Bft) S-SO 0.00 h 0 W/m 6.7 C 8.1 C 4.7 km/h (1 Bft)
11.11.2008 19:00 8.2 C 90 % 1019.6 hPa 0.0 l/m 1.4 km/h (1 Bft) S-SO 0.00 h 0 W/m 6.7 C 8.2 C 2.7 km/h (1 Bft)
11.11.2008 20:00 8.1 C 89 % 1019.5 hPa 0.0 l/m 0.5 km/h (0 Bft) W-SW 0.00 h 0 W/m 6.4 C 8.1 C 1.6 km/h (1 Bft)
11.11.2008 21:00 7.9 C 89 % 1019.4 hPa 0.0 l/m 0.0 km/h (0 Bft) N 0.00 h 0 W/m 6.3 C 7.9 C 0.0 km/h (0 Bft)
11.11.2008 22:00 7.7 C 90 % 1019.2 hPa 0.0 l/m 0.4 km/h (0 Bft) NW 0.00 h 0 W/m 6.1 C 7.7 C 1.2 km/h (1 Bft)
11.11.2008 23:00 7.6 C 90 % 1019.2 hPa 0.0 l/m 1.6 km/h (1 Bft) W-NW 0.00 h 0 W/m 6.0 C 7.5 C 3.0 km/h (1 Bft)
12.11.2008 00:00 7.7 C 90 % 1019.1 hPa 0.0 l/m 1.5 km/h (1 Bft) W 0.00 h 0 W/m 6.1 C 7.7 C 3.1 km/h (1 Bft)
12.11.2008 01:00 7.6 C 88 % 1018.7 hPa 0.0 l/m 0.6 km/h (0 Bft) W 0.00 h 0 W/m 5.8 C 7.6 C 1.8 km/h (1 Bft)
12.11.2008 02:00 7.4 C 88 % 1018.8 hPa 0.0 l/m 0.1 km/h (0 Bft) W 0.00 h 0 W/m 5.5 C 7.4 C 0.7 km/h (0 Bft)
12.11.2008 03:00 7.3 C 88 % 1018.9 hPa 0.0 l/m 3.0 km/h (1 Bft) W 0.00 h 0 W/m 5.5 C 7.2 C 5.0 km/h (1 Bft)
12.11.2008 04:00 7.3 C 88 % 1019.1 hPa 0.0 l/m 1.2 km/h (1 Bft) W-NW 0.00 h 0 W/m 5.4 C 7.3 C 2.6 km/h (1 Bft)
12.11.2008 05:00 7.3 C 88 % 1019.5 hPa 0.6 l/m 0.5 km/h (0 Bft) W-SW 0.00 h 0 W/m 5.5 C 7.3 C 1.8 km/h (1 Bft)
12.11.2008 06:00 6.9 C 91 % 1019.6 hPa 0.4 l/m 2.3 km/h (1 Bft) O-SO 0.00 h 0 W/m 5.5 C 6.7 C 4.2 km/h (1 Bft)
12.11.2008 07:00 6.4 C 93 % 1019.7 hPa 0.2 l/m 1.6 km/h (1 Bft) O-SO 0.00 h 8 W/m 5.3 C 6.1 C 2.5 km/h (1 Bft)
12.11.2008 08:00 6.3 C 94 % 1020.2 hPa 0.0 l/m 1.1 km/h (1 Bft) O-SO 0.00 h 42 W/m 5.3 C 6.2 C 2.0 km/h (1 Bft)
12.11.2008 09:00 6.8 C 94 % 1020.1 hPa 0.0 l/m 0.2 km/h (0 Bft) O-SO 0.00 h 108 W/m 5.9 C 6.8 C 0.6 km/h (0 Bft)
12.11.2008 10:00 7.2 C 93 % 1020.1 hPa 0.0 l/m 0.1 km/h (0 Bft) O-SO 0.00 h 108 W/m 6.2 C 7.2 C 0.7 km/h (0 Bft)
12.11.2008 11:00 8.2 C 87 % 1020.0 hPa 0.0 l/m 0.3 km/h (0 Bft) O-SO 0.48 h 212 W/m 6.1 C 8.2 C 0.9 km/h (0 Bft)
12.11.2008 12:00 8.9 C 84 % 1019.5 hPa 0.0 l/m 0.5 km/h (0 Bft) SO 0.52 h 218 W/m 6.4 C 8.9 C 1.9 km/h (1 Bft)
12.11.2008 13:00 9.3 C 80 % 1019.1 hPa 0.0 l/m 0.6 km/h (0 Bft) SO 0.10 h 164 W/m 6.0 C 9.3 C 2.2 km/h (1 Bft)
12.11.2008 14:00 9.6 C 78 % 1018.9 hPa 0.0 l/m 0.7 km/h (0 Bft) SO 0.17 h 130 W/m 6.0 C 9.6 C 2.2 km/h (1 Bft)
12.11.2008 15:00 9.3 C 80 % 1018.8 hPa 0.0 l/m 0.2 km/h (0 Bft) O-SO 0.00 h 67 W/m 6.0 C 9.3 C 0.7 km/h (0 Bft)
12.11.2008 16:00 8.8 C 82 % 1019.0 hPa 0.0 l/m 0.3 km/h (0 Bft) SO 0.00 h 18 W/m 5.9 C 8.8 C 1.1 km/h (0 Bft)
12.11.2008 17:00 8.2 C 85 % 1019.2 hPa 0.0 l/m 0.4 km/h (0 Bft) SO 0.00 h 0 W/m 5.7 C 8.2 C 1.3 km/h (1 Bft)
12.11.2008 18:00 7.5 C 87 % 1019.6 hPa 0.0 l/m 0.4 km/h (0 Bft) SO 0.00 h 0 W/m 5.5 C 7.5 C 0.9 km/h (0 Bft)
12.11.2008 19:00 6.8 C 90 % 1020.1 hPa 0.0 l/m 1.6 km/h (1 Bft) SO 0.00 h 0 W/m 5.3 C 6.8 C 2.6 km/h (1 Bft)
12.11.2008 20:00 6.4 C 92 % 1020.5 hPa 0.0 l/m 1.6 km/h (1 Bft) SO 0.00 h 0 W/m 5.1 C 6.4 C 2.9 km/h (1 Bft)
12.11.2008 21:00 6.1 C 92 % 1020.7 hPa 0.0 l/m 0.1 km/h (0 Bft) SO 0.00 h 0 W/m 5.0 C 6.1 C 0.4 km/h (0 Bft)
12.11.2008 22:00 5.8 C 93 % 1021.1 hPa 0.0 l/m 0.0 km/h (0 Bft) N 0.00 h 0 W/m 4.8 C 5.8 C 0.1 km/h (0 Bft)
12.11.2008 23:00 5.5 C 95 % 1021.2 hPa 0.0 l/m 1.6 km/h (1 Bft) O-SO 0.00 h 0 W/m 4.7 C 5.4 C 2.2 km/h (1 Bft)
13.11.2008 00:00 5.5 C 96 % 1021.2 hPa 0.0 l/m 0.1 km/h (0 Bft) O-SO 0.00 h 0 W/m 4.9 C 5.5 C 0.2 km/h (0 Bft)
13.11.2008 01:00 5.3 C 96 % 1021.0 hPa 0.0 l/m 0.0 km/h (0 Bft) O-SO 0.00 h 0 W/m 4.7 C 5.3 C 0.4 km/h (0 Bft)
13.11.2008 02:00 5.3 C 97 % 1021.1 hPa 0.0 l/m 0.1 km/h (0 Bft) O-SO 0.00 h 0 W/m 4.8 C 5.3 C 0.3 km/h (0 Bft)
13.11.2008 03:00 5.5 C 97 % 1021.2 hPa 0.0 l/m 0.0 km/h (0 Bft) N 0.00 h 0 W/m 5.0 C 5.5 C 0.1 km/h (0 Bft)
13.11.2008 04:00 5.5 C 97 % 1021.2 hPa 0.0 l/m 0.0 km/h (0 Bft) N 0.00 h 0 W/m 5.1 C 5.5 C 0.3 km/h (0 Bft)
13.11.2008 05:00 5.4 C 97 % 1021.5 hPa 0.0 l/m 0.1 km/h (0 Bft) O-SO 0.00 h 0 W/m 4.9 C 5.4 C 0.5 km/h (0 Bft)
13.11.2008 06:00 5.3 C 97 % 1021.9 hPa 0.0 l/m 0.0 km/h (0 Bft) N 0.00 h 0 W/m 4.9 C 5.3 C 0.1 km/h (0 Bft)
13.11.2008 07:00 5.5 C 97 % 1022.5 hPa 0.0 l/m 0.5 km/h (0 Bft) N 0.00 h 12 W/m 5.1 C 5.5 C 1.7 km/h (1 Bft)
13.11.2008 08:00 6.0 C 97 % 1023.1 hPa 0.0 l/m 0.7 km/h (0 Bft) N-NO 0.00 h 26 W/m 5.6 C 6.0 C 2.4 km/h (1 Bft)
13.11.2008 09:00 6.5 C 95 % 1023.5 hPa 0.0 l/m 1.8 km/h (1 Bft) NO 0.00 h 62 W/m 5.7 C 6.5 C 4.8 km/h (1 Bft)
13.11.2008 10:00 7.4 C 87 % 1023.7 hPa 0.0 l/m 1.8 km/h (1 Bft) N-NO 0.00 h 99 W/m 5.3 C 7.4 C 4.5 km/h (1 Bft)
13.11.2008 11:00 8.2 C 83 % 1023.8 hPa 0.0 l/m 1.9 km/h (1 Bft) O 0.33 h 204 W/m 5.5 C 8.2 C 4.4 km/h (1 Bft)
13.11.2008 12:00 8.7 C 79 % 1023.4 hPa 0.0 l/m 2.4 km/h (1 Bft) O-SO 0.00 h 120 W/m 5.2 C 8.6 C 4.6 km/h (1 Bft)
13.11.2008 13:00 8.7 C 78 % 1023.3 hPa 0.2 l/m 2.0 km/h (1 Bft) O-SO 0.00 h 101 W/m 5.0 C 8.6 C 4.1 km/h (1 Bft)
13.11.2008 14:00 8.8 C 77 % 1023.4 hPa 0.0 l/m 1.7 km/h (1 Bft) N 0.00 h 68 W/m 4.9 C 8.7 C 4.1 km/h (1 Bft)
13.11.2008 15:00 8.8 C 74 % 1023.5 hPa 0.0 l/m 1.4 km/h (1 Bft) N 0.00 h 34 W/m 4.4 C 8.8 C 3.5 km/h (1 Bft)
13.11.2008 16:00 8.6 C 73 % 1024.0 hPa 0.0 l/m 0.6 km/h (0 Bft) NO 0.00 h 10 W/m 4.1 C 8.6 C 2.1 km/h (1 Bft)
13.11.2008 17:00 8.2 C 74 % 1024.8 hPa 0.0 l/m 0.3 km/h (0 Bft) NO 0.00 h 0 W/m 3.8 C 8.2 C 1.3 km/h (1 Bft)
13.11.2008 18:00 8.1 C 75 % 1025.4 hPa 0.0 l/m 0.3 km/h (0 Bft) NO 0.00 h 0 W/m 3.8 C 8.1 C 1.6 km/h (1 Bft)
13.11.2008 19:00 7.8 C 76 % 1025.6 hPa 0.0 l/m 0.8 km/h (0 Bft) O-NO 0.00 h 0 W/m 3.8 C 7.8 C 2.7 km/h (1 Bft)
13.11.2008 20:00 7.6 C 76 % 1025.8 hPa 0.0 l/m 0.5 km/h (0 Bft) O-NO 0.00 h 0 W/m 3.6 C 7.6 C 1.9 km/h (1 Bft)
13.11.2008 21:00 7.3 C 77 % 1026.1 hPa 0.0 l/m 0.4 km/h (0 Bft) O-NO 0.00 h 0 W/m 3.6 C 7.3 C 1.4 km/h (1 Bft)
13.11.2008 22:00 7.2 C 78 % 1026.2 hPa 0.0 l/m 0.9 km/h (0 Bft) NO 0.00 h 0 W/m 3.6 C 7.2 C 2.2 km/h (1 Bft)
13.11.2008 23:00 7.3 C 79 % 1026.0 hPa 0.0 l/m 0.7 km/h (0 Bft) N-NO 0.00 h 0 W/m 3.8 C 7.3 C 1.9 km/h (1 Bft)
14.11.2008 00:00 7.1 C 80 % 1026.0 hPa 0.0 l/m 0.3 km/h (0 Bft) N-NO 0.00 h 0 W/m 3.9 C 7.1 C 1.3 km/h (1 Bft)
14.11.2008 01:00 6.9 C 81 % 1026.0 hPa 0.0 l/m 0.3 km/h (0 Bft) NO 0.00 h 0 W/m 3.8 C 6.9 C 1.2 km/h (1 Bft)
14.11.2008 02:00 6.8 C 81 % 1026.1 hPa 0.0 l/m 0.4 km/h (0 Bft) N-NO 0.00 h 0 W/m 3.8 C 6.8 C 1.6 km/h (1 Bft)
14.11.2008 03:00 6.8 C 80 % 1026.3 hPa 0.0 l/m 1.9 km/h (1 Bft) N-NO 0.00 h 0 W/m 3.7 C 6.7 C 4.3 km/h (1 Bft)
14.11.2008 04:00 6.7 C 80 % 1026.3 hPa 0.0 l/m 1.7 km/h (1 Bft) N-NO 0.00 h 0 W/m 3.5 C 6.7 C 4.2 km/h (1 Bft)
14.11.2008 05:00 6.2 C 80 % 1026.8 hPa 0.0 l/m 0.5 km/h (0 Bft) N 0.00 h 0 W/m 3.0 C 6.2 C 2.3 km/h (1 Bft)
14.11.2008 06:00 5.6 C 82 % 1027.3 hPa 0.0 l/m 1.3 km/h (1 Bft) N-NO 0.00 h 0 W/m 2.7 C 5.6 C 3.7 km/h (1 Bft)
14.11.2008 07:00 5.0 C 83 % 1027.4 hPa 0.0 l/m 0.3 km/h (0 Bft) N-NO 0.00 h 11 W/m 2.3 C 5.0 C 1.4 km/h (1 Bft)
14.11.2008 08:00 4.7 C 87 % 1027.8 hPa 0.0 l/m 1.1 km/h (0 Bft) N-NW 0.00 h 43 W/m 2.8 C 4.7 C 2.4 km/h (1 Bft)
14.11.2008 09:00 5.5 C 89 % 1028.2 hPa 0.0 l/m 0.5 km/h (0 Bft) N-NW 0.10 h 109 W/m 3.9 C 5.5 C 1.3 km/h (1 Bft)
14.11.2008 10:00 6.7 C 85 % 1028.0 hPa 0.0 l/m 1.7 km/h (1 Bft) W-SW 0.18 h 159 W/m 4.4 C 6.7 C 3.5 km/h (1 Bft)
14.11.2008 11:00 8.6 C 74 % 1027.9 hPa 0.0 l/m 2.5 km/h (1 Bft) O-SO 0.97 h 364 W/m 4.3 C 8.5 C 5.4 km/h (1 Bft)
14.11.2008 12:00 9.3 C 71 % 1027.2 hPa 0.0 l/m 1.7 km/h (1 Bft) O-SO 0.50 h 216 W/m 4.3 C 9.2 C 3.8 km/h (1 Bft)
14.11.2008 13:00 9.1 C 70 % 1027.1 hPa 0.0 l/m 1.4 km/h (1 Bft) NO 0.00 h 102 W/m 4.0 C 9.1 C 3.7 km/h (1 Bft)
14.11.2008 14:00 9.2 C 67 % 1027.2 hPa 0.0 l/m 6.3 km/h (2 Bft) O-SO 0.07 h 123 W/m 3.4 C 8.5 C 9.8 km/h (2 Bft)
14.11.2008 15:00 8.8 C 68 % 1027.5 hPa 0.0 l/m 5.0 km/h (1 Bft) O-SO 0.45 h 89 W/m 3.1 C 8.3 C 7.8 km/h (2 Bft)
14.11.2008 16:00 7.8 C 72 % 1028.0 hPa 0.0 l/m 3.2 km/h (1 Bft) O-SO 0.30 h 27 W/m 3.0 C 7.6 C 5.1 km/h (1 Bft)
14.11.2008 17:00 6.3 C 76 % 1028.5 hPa 0.0 l/m 0.3 km/h (0 Bft) O-SO 0.00 h 0 W/m 2.4 C 6.3 C 1.0 km/h (0 Bft)
14.11.2008 18:00 4.9 C 83 % 1029.1 hPa 0.0 l/m 0.4 km/h (0 Bft) O-SO 0.00 h 0 W/m 2.3 C 4.9 C 1.2 km/h (1 Bft)
14.11.2008 19:00 3.9 C 87 % 1029.6 hPa 0.0 l/m 1.9 km/h (1 Bft) O-SO 0.00 h 0 W/m 2.0 C 3.8 C 3.3 km/h (1 Bft)
14.11.2008 20:00 2.7 C 90 % 1029.8 hPa 0.0 l/m 1.4 km/h (1 Bft) O-SO 0.00 h 0 W/m 1.2 C 2.7 C 2.4 km/h (1 Bft)
14.11.2008 21:00 2.2 C 92 % 1029.7 hPa 0.0 l/m 0.2 km/h (0 Bft) O-SO 0.00 h 0 W/m 1.0 C 2.2 C 0.7 km/h (0 Bft)
14.11.2008 22:00 1.8 C 93 % 1029.6 hPa 0.0 l/m 0.4 km/h (0 Bft) O-SO 0.00 h 0 W/m 0.8 C 1.8 C 1.0 km/h (0 Bft)
14.11.2008 23:00 1.5 C 93 % 1029.4 hPa 0.0 l/m 1.2 km/h (1 Bft) O-SO 0.00 h 0 W/m 0.5 C 1.4 C 2.4 km/h (1 Bft)
15.11.2008 00:00 1.1 C 94 % 1029.4 hPa 0.0 l/m 0.2 km/h (0 Bft) O-SO 0.00 h 0 W/m 0.2 C 1.1 C 0.9 km/h (0 Bft)
15.11.2008 01:00 0.6 C 94 % 1029.4 hPa 0.0 l/m 0.0 km/h (0 Bft) N 0.00 h 0 W/m -0.3 C 0.6 C 0.6 km/h (0 Bft)
15.11.2008 02:00 0.3 C 95 % 1029.5 hPa 0.0 l/m 0.3 km/h (0 Bft) O-SO 0.00 h 0 W/m -0.5 C 0.3 C 0.7 km/h (0 Bft)
15.11.2008 03:00 -0.2 C 95 % 1029.4 hPa 0.0 l/m 0.2 km/h (0 Bft) O-SO 0.00 h 0 W/m -0.9 C -0.2 C 0.7 km/h (0 Bft)
15.11.2008 04:00 -0.3 C 96 % 1029.6 hPa 0.0 l/m 0.1 km/h (0 Bft) O-SO 0.00 h 0 W/m -0.9 C -0.3 C 0.5 km/h (0 Bft)
15.11.2008 05:00 -0.4 C 96 % 1030.0 hPa 0.0 l/m 2.3 km/h (1 Bft) O-SO 0.00 h 0 W/m -0.9 C -0.6 C 3.7 km/h (1 Bft)
15.11.2008 06:00 -0.7 C 97 % 1030.2 hPa 0.0 l/m 0.3 km/h (0 Bft) O-SO 0.00 h 0 W/m -1.1 C -0.7 C 0.7 km/h (0 Bft)
15.11.2008 07:00 -0.5 C 98 % 1030.4 hPa 0.0 l/m 0.2 km/h (0 Bft) O-SO 0.00 h 9 W/m -0.8 C -0.5 C 0.8 km/h (0 Bft)
15.11.2008 08:00 -0.1 C 98 % 1030.8 hPa 0.0 l/m 0.0 km/h (0 Bft) W-SW 0.00 h 37 W/m -0.3 C -0.1 C 0.3 km/h (0 Bft)
15.11.2008 09:00 0.6 C 99 % 1031.0 hPa 0.0 l/m 0.6 km/h (0 Bft) W-SW 0.00 h 86 W/m 0.3 C 0.6 C 1.7 km/h (1 Bft)
15.11.2008 10:00 1.8 C 100 % 1030.9 hPa 0.0 l/m 0.9 km/h (0 Bft) W-SW 0.12 h 154 W/m 1.7 C 1.8 C 2.3 km/h (1 Bft)
15.11.2008 11:00 3.3 C 97 % 1030.7 hPa 0.0 l/m 1.1 km/h (1 Bft) NW 0.55 h 220 W/m 2.8 C 3.3 C 2.4 km/h (1 Bft)
15.11.2008 12:00 5.3 C 88 % 1030.1 hPa 0.0 l/m 1.3 km/h (1 Bft) NW 0.98 h 315 W/m 3.5 C 5.3 C 3.2 km/h (1 Bft)
15.11.2008 13:00 7.4 C 81 % 1029.4 hPa 0.0 l/m 1.8 km/h (1 Bft) N 1.00 h 307 W/m 4.2 C 7.4 C 3.8 km/h (1 Bft)
15.11.2008 14:00 8.1 C 78 % 1029.1 hPa 0.0 l/m 1.7 km/h (1 Bft) NW 1.00 h 223 W/m 4.4 C 8.1 C 3.6 km/h (1 Bft)
15.11.2008 15:00 8.1 C 76 % 1029.2 hPa 0.0 l/m 0.9 km/h (0 Bft) NW 1.00 h 121 W/m 4.2 C 8.1 C 2.1 km/h (1 Bft)
15.11.2008 16:00 6.9 C 81 % 1029.3 hPa 0.0 l/m 1.0 km/h (0 Bft) S-SO 0.08 h 25 W/m 3.8 C 6.8 C 2.0 km/h (1 Bft)
15.11.2008 17:00 4.8 C 87 % 1029.6 hPa 0.0 l/m 4.0 km/h (1 Bft) S-SO 0.00 h 0 W/m 2.8 C 4.3 C 6.1 km/h (2 Bft)
15.11.2008 18:00 3.4 C 90 % 1030.0 hPa 0.0 l/m 4.3 km/h (1 Bft) O-SO 0.00 h 0 W/m 1.9 C 2.6 C 5.7 km/h (1 Bft)
15.11.2008 19:00 2.6 C 93 % 1030.3 hPa 0.0 l/m 2.1 km/h (1 Bft) O-SO 0.00 h 0 W/m 1.5 C 2.3 C 3.3 km/h (1 Bft)
15.11.2008 20:00 2.0 C 94 % 1030.4 hPa 0.0 l/m 1.6 km/h (1 Bft) O-SO 0.00 h 0 W/m 1.2 C 2.0 C 2.8 km/h (1 Bft)
15.11.2008 21:00 1.5 C 96 % 1030.7 hPa 0.0 l/m 1.0 km/h (0 Bft) O-SO 0.00 h 0 W/m 0.9 C 1.5 C 1.7 km/h (1 Bft)
15.11.2008 22:00 0.9 C 97 % 1030.8 hPa 0.0 l/m 1.0 km/h (0 Bft) O-SO 0.00 h 0 W/m 0.4 C 0.8 C 1.7 km/h (1 Bft)
15.11.2008 23:00 1.3 C 98 % 1030.7 hPa 0.0 l/m 0.0 km/h (0 Bft) N 0.00 h 0 W/m 0.9 C 1.3 C 0.2 km/h (0 Bft)
16.11.2008 00:00 1.0 C 99 % 1030.6 hPa 0.0 l/m 0.8 km/h (0 Bft) O-SO 0.00 h 0 W/m 0.8 C 1.0 C 1.8 km/h (1 Bft)
16.11.2008 01:00 1.0 C 100 % 1030.4 hPa 0.2 l/m 0.5 km/h (0 Bft) O-SO 0.00 h 0 W/m 1.0 C 1.0 C 1.4 km/h (1 Bft)
16.11.2008 02:00 1.4 C 100 % 1030.2 hPa 0.0 l/m 0.8 km/h (0 Bft) W 0.00 h 0 W/m 1.4 C 1.4 C 1.9 km/h (1 Bft)
16.11.2008 03:00 1.3 C 100 % 1030.3 hPa 0.0 l/m 0.5 km/h (0 Bft) W 0.00 h 0 W/m 1.3 C 1.3 C 1.6 km/h (1 Bft)
16.11.2008 04:00 1.5 C 100 % 1030.4 hPa 0.0 l/m 0.4 km/h (0 Bft) W 0.00 h 0 W/m 1.5 C 1.5 C 1.1 km/h (1 Bft)
16.11.2008 05:00 1.7 C 100 % 1030.7 hPa 0.0 l/m 0.1 km/h (0 Bft) W 0.00 h 0 W/m 1.7 C 1.7 C 0.6 km/h (0 Bft)
16.11.2008 06:00 2.0 C 100 % 1030.8 hPa 0.0 l/m 0.2 km/h (0 Bft) W 0.00 h 0 W/m 2.0 C 2.0 C 0.7 km/h (0 Bft)
16.11.2008 07:00 2.2 C 100 % 1030.7 hPa 0.0 l/m 0.0 km/h (0 Bft) W 0.00 h 5 W/m 2.2 C 2.2 C 0.3 km/h (0 Bft)
16.11.2008 08:00 2.3 C 100 % 1031.2 hPa 0.2 l/m 0.1 km/h (0 Bft) W 0.00 h 10 W/m 2.3 C 2.3 C 0.2 km/h (0 Bft)
16.11.2008 09:00 2.8 C 100 % 1031.4 hPa 0.0 l/m 0.0 km/h (0 Bft) N 0.00 h 24 W/m 2.8 C 2.8 C 0.2 km/h (0 Bft)
16.11.2008 10:00 3.6 C 100 % 1031.4 hPa 0.0 l/m 0.2 km/h (0 Bft) W 0.00 h 51 W/m 3.6 C 3.6 C 0.9 km/h (0 Bft)
16.11.2008 11:00 4.3 C 100 % 1031.3 hPa 0.0 l/m 0.5 km/h (0 Bft) W 0.00 h 76 W/m 4.3 C 4.3 C 1.7 km/h (1 Bft)
16.11.2008 12:00 5.1 C 100 % 1030.7 hPa 0.0 l/m 0.6 km/h (0 Bft) W 0.00 h 80 W/m 5.1 C 5.1 C 1.9 km/h (1 Bft)
16.11.2008 13:00 5.6 C 95 % 1030.5 hPa 0.0 l/m 0.1 km/h (0 Bft) W 0.00 h 64 W/m 4.9 C 5.6 C 0.8 km/h (0 Bft)
16.11.2008 14:00 6.2 C 91 % 1030.2 hPa 0.0 l/m 0.1 km/h (0 Bft) W 0.00 h 49 W/m 4.8 C 6.2 C 1.0 km/h (0 Bft)
16.11.2008 15:00 6.4 C 90 % 1030.4 hPa 0.0 l/m 0.5 km/h (0 Bft) S 0.00 h 39 W/m 4.9 C 6.4 C 1.8 km/h (1 Bft)
16.11.2008 16:00 6.6 C 90 % 1030.4 hPa 0.0 l/m 1.2 km/h (1 Bft) S 0.00 h 18 W/m 5.0 C 6.6 C 3.4 km/h (1 Bft)
16.11.2008 17:00 6.3 C 91 % 1030.4 hPa 0.0 l/m 1.0 km/h (0 Bft) S-SW 0.00 h 0 W/m 5.0 C 6.3 C 2.9 km/h (1 Bft)
16.11.2008 18:00 6.1 C 93 % 1030.6 hPa 0.0 l/m 1.1 km/h (1 Bft) S 0.00 h 0 W/m 5.0 C 6.1 C 3.3 km/h (1 Bft)
16.11.2008 19:00 6.0 C 92 % 1031.0 hPa 0.0 l/m 1.5 km/h (1 Bft) S-SW 0.00 h 0 W/m 4.8 C 6.0 C 3.8 km/h (1 Bft)
16.11.2008 20:00 6.0 C 91 % 1030.9 hPa 0.0 l/m 2.1 km/h (1 Bft) S-SO 0.00 h 0 W/m 4.6 C 5.9 C 4.6 km/h (1 Bft)
16.11.2008 21:00 5.8 C 91 % 1030.8 hPa 0.0 l/m 2.4 km/h (1 Bft) S 0.00 h 0 W/m 4.5 C 5.8 C 5.2 km/h (1 Bft)
16.11.2008 22:00 5.8 C 91 % 1030.8 hPa 0.0 l/m 3.8 km/h (1 Bft) S-SW 0.00 h 0 W/m 4.5 C 5.4 C 7.5 km/h (2 Bft)
16.11.2008 23:00 5.9 C 91 % 1030.5 hPa 0.0 l/m 2.9 km/h (1 Bft) S-SO 0.00 h 0 W/m 4.5 C 5.7 C 6.4 km/h (2 Bft)
Min-Datum _ 15.11.08 10.11.08 11.11.08 - 10.11.08 - - - 15.11.08 15.11.08 10.11.08
_ Min-Zeit 07:00 14:09 13:15 - 00:00 - - - 05:34 05:37 00:04
Minimum _ -0.8 C 61 % 1016.0 hPa - 0.0 km/h (0 Bft) - - - -1.2 C -2.4 C 0.0 km/h (0 Bft)
Max-Datum _ 10.11.08 15.11.08 16.11.08 12.11.08 11.11.08 - 10.11.08 14.11.08 10.11.08 10.11.08 11.11.08
_ Max-Zeit 14:07 10:21 11:00 05:30 15:36 - 07:36 12:24 14:07 14:07 15:36
Maximum _ 15.7 C 100 % 1031.7 hPa 0.6 l/m 27.8 km/h
W (4 Bft)
- 0.02 h 471 W/m 9.4 C 15.7 C 43.5 km/h
W-NW (6 Bft)
Durchschnitt _ 6.5 C 87 % 1024.8 hPa #2.4 l/m 1.8 km/h (1 Bft) O-SO #14:16 h 103 W/m 4.3 C 6.5 C 3.7 km/h (1 Bft)
© Kaiko 2008